createdAt,value
2022-10-13T00:04:59.497Z,9.70
2022-10-13T00:10:02.257Z,10.90
2022-10-13T00:15:06.835Z,11.18
2022-10-13T00:20:09.584Z,10.05
2022-10-13T00:25:11.173Z,10.27
2022-10-13T00:30:12.790Z,9.60
2022-10-13T00:35:14.434Z,9.93
2022-10-13T00:40:16.043Z,10.55
2022-10-13T00:45:17.501Z,9.32
2022-10-13T00:50:24.011Z,10.52
2022-10-13T00:55:32.722Z,10.18
2022-10-13T01:00:35.597Z,10.32
2022-10-13T01:05:39.107Z,10.25
2022-10-13T01:10:59.206Z,11.27
2022-10-13T01:16:16.155Z,11.05
2022-10-13T01:21:52.195Z,10.20
2022-10-13T01:27:08.693Z,10.52
2022-10-13T01:32:13.874Z,10.68
2022-10-13T01:37:37.820Z,10.23
2022-10-13T01:42:48.670Z,10.10
2022-10-13T01:47:52.733Z,9.88
2022-10-13T01:52:54.829Z,10.55
2022-10-13T01:57:56.564Z,10.10
2022-10-13T02:03:23.554Z,10.68
2022-10-13T02:08:29.438Z,9.90
2022-10-13T02:13:34.594Z,10.48
2022-10-13T02:18:36.973Z,8.85
2022-10-13T02:23:43.065Z,9.80
2022-10-13T02:28:44.894Z,10.30
2022-10-13T02:33:46.507Z,10.65
2022-10-13T02:38:48.038Z,9.98
2022-10-13T02:43:49.607Z,10.27
2022-10-13T02:48:51.403Z,10.80
2022-10-13T02:53:53.074Z,10.13
2022-10-13T02:58:54.727Z,11.02
2022-10-13T03:03:56.530Z,11.13
2022-10-13T03:08:58.289Z,10.45
2022-10-13T03:14:00.436Z,11.48
2022-10-13T03:19:02.085Z,9.82
2022-10-13T03:24:05.648Z,11.25
2022-10-13T03:29:07.225Z,10.93
2022-10-13T03:34:10.511Z,10.90
2022-10-13T03:39:13.288Z,10.25
2022-10-13T03:44:14.842Z,11.90
2022-10-13T03:49:17.394Z,12.27
2022-10-13T03:54:18.995Z,11.65
2022-10-13T03:59:23.130Z,11.98
2022-10-13T04:04:24.715Z,9.98
2022-10-13T04:09:30.907Z,10.13
2022-10-13T04:14:32.578Z,11.95
2022-10-13T04:19:42.796Z,11.05
2022-10-13T04:24:44.365Z,11.75
2022-10-13T04:29:45.948Z,11.18
2022-10-13T04:34:47.594Z,11.35
2022-10-13T04:39:49.183Z,11.98
2022-10-13T04:44:50.730Z,10.68
2022-10-13T04:49:55.874Z,11.65
2022-10-13T04:54:57.463Z,10.95
2022-10-13T04:59:59.020Z,12.98
2022-10-13T05:05:00.778Z,11.38
2022-10-13T05:10:02.394Z,11.38
2022-10-13T05:15:04.180Z,11.48
2022-10-13T05:20:06.263Z,11.50
2022-10-13T05:25:08.193Z,12.00
2022-10-13T05:30:10.340Z,11.15
2022-10-13T05:35:11.864Z,11.40
2022-10-13T05:40:15.498Z,18.48
2022-10-13T05:45:19.597Z,11.40
2022-10-13T05:50:21.205Z,11.60
2022-10-13T05:55:22.956Z,11.35
2022-10-13T06:00:24.526Z,12.20
2022-10-13T06:05:28.395Z,12.27
2022-10-13T06:10:31.092Z,12.18
2022-10-13T06:15:32.937Z,11.73
2022-10-13T06:20:34.938Z,13.18
2022-10-13T06:25:37.107Z,11.98
2022-10-13T06:30:39.018Z,12.30
2022-10-13T06:35:41.307Z,12.23
2022-10-13T06:40:46.657Z,11.93
2022-10-13T06:45:48.264Z,12.07
2022-10-13T06:50:50.168Z,13.10
2022-10-13T06:55:55.640Z,12.48
2022-10-13T07:00:57.758Z,12.35
2022-10-13T07:06:03.992Z,12.60
2022-10-13T07:11:15.375Z,12.83
2022-10-13T07:16:17.661Z,11.85
2022-10-13T07:21:19.431Z,12.38
2022-10-13T07:26:21.220Z,11.13
2022-10-13T07:31:22.937Z,12.15
2022-10-13T07:36:24.578Z,11.25
2022-10-13T07:41:27.721Z,11.98
2022-10-13T07:46:30.681Z,11.00
2022-10-13T07:51:32.422Z,11.82
2022-10-13T07:56:34.141Z,10.75
2022-10-13T08:01:37.589Z,11.10
2022-10-13T08:11:45.836Z,12.70
2022-10-13T08:16:50.092Z,11.85
2022-10-13T08:21:59.504Z,11.50
2022-10-13T08:27:01.417Z,11.77
2022-10-13T08:32:02.963Z,12.35
2022-10-13T08:37:04.854Z,10.52
2022-10-13T08:42:16.018Z,10.48
2022-10-13T08:47:24.565Z,11.80
2022-10-13T08:52:28.513Z,11.80
2022-10-13T08:57:30.632Z,10.10
2022-10-13T09:02:32.419Z,11.73
2022-10-13T09:07:37.554Z,11.60
2022-10-13T09:12:39.251Z,11.73
2022-10-13T09:17:41.622Z,10.88
2022-10-13T09:22:44.039Z,11.32
2022-10-13T09:27:50.507Z,11.93
2022-10-13T09:33:07.252Z,12.07
2022-10-13T09:38:15.417Z,11.30
2022-10-13T09:43:57.379Z,12.32
2022-10-13T09:49:05.190Z,11.73
2022-10-13T09:54:24.213Z,9.63
2022-10-13T09:59:36.777Z,11.00
2022-10-13T10:04:43.020Z,10.02
2022-10-13T10:09:49.044Z,10.10
2022-10-13T10:14:52.846Z,9.98
2022-10-13T10:20:13.182Z,9.02
2022-10-13T10:25:37.281Z,9.55
2022-10-13T10:30:48.828Z,9.43
2022-10-13T10:36:17.156Z,9.40
2022-10-13T10:41:40.303Z,10.52
2022-10-13T10:46:50.210Z,9.98
2022-10-13T10:51:52.193Z,9.30
2022-10-13T10:57:00.597Z,9.05
2022-10-13T11:02:08.156Z,9.43
2022-10-13T11:07:24.638Z,8.20
2022-10-13T11:12:46.365Z,8.20
2022-10-13T11:17:47.897Z,7.22
2022-10-13T11:22:58.529Z,7.85
2022-10-13T11:28:00.191Z,7.18
2022-10-13T11:33:09.168Z,6.53
2022-10-13T11:38:32.189Z,6.40
2022-10-13T11:43:53.975Z,6.85
2022-10-13T11:49:01.674Z,5.55
2022-10-13T11:54:05.970Z,4.70
2022-10-13T11:59:20.092Z,4.80
2022-10-13T12:04:24.010Z,4.72
2022-10-13T12:09:25.898Z,4.10
2022-10-13T12:14:32.492Z,5.35
2022-10-13T12:19:34.114Z,6.72
2022-10-13T12:24:35.693Z,6.72
2022-10-13T12:29:40.411Z,6.38
2022-10-13T12:34:41.957Z,6.55
2022-10-13T12:39:43.705Z,7.10
2022-10-13T12:44:46.099Z,6.07
2022-10-13T12:49:47.752Z,5.15
2022-10-13T12:54:56.292Z,4.88
2022-10-13T12:59:57.845Z,3.70
2022-10-13T13:04:59.604Z,4.40
2022-10-13T13:10:07.393Z,3.67
2022-10-13T13:15:19.829Z,4.13
2022-10-13T13:20:32.826Z,3.38
2022-10-13T13:25:34.452Z,5.13
2022-10-13T13:30:35.984Z,6.22
2022-10-13T13:35:37.811Z,4.97
2022-10-13T13:40:39.374Z,5.03
2022-10-13T13:45:40.970Z,5.78
2022-10-13T13:50:42.492Z,4.75
2022-10-13T13:55:45.707Z,5.35
2022-10-13T14:00:50.870Z,5.18
2022-10-13T14:05:52.482Z,5.18
2022-10-13T14:10:54.086Z,5.60
2022-10-13T14:15:58.673Z,5.18
2022-10-13T14:21:05.746Z,5.05
2022-10-13T14:26:09.558Z,5.03
2022-10-13T14:31:11.987Z,5.43
2022-10-13T14:36:15.616Z,5.43
2022-10-13T14:41:18.012Z,6.57
2022-10-13T14:46:20.737Z,6.38
2022-10-13T14:51:22.457Z,5.63
2022-10-13T14:56:26.961Z,6.18
2022-10-13T15:01:28.916Z,6.95
2022-10-13T15:06:31.397Z,6.10
2022-10-13T15:11:32.929Z,5.75
2022-10-13T15:16:35.142Z,5.10
2022-10-13T15:21:36.791Z,5.63
2022-10-13T15:26:38.817Z,6.32
2022-10-13T15:31:40.429Z,6.90
2022-10-13T15:36:41.929Z,8.25
2022-10-13T15:41:43.439Z,7.30
2022-10-13T15:46:59.394Z,7.05
2022-10-13T15:52:06.743Z,6.38
2022-10-13T15:57:08.419Z,7.43
2022-10-13T16:02:10.847Z,6.88
2022-10-13T16:07:12.469Z,8.55
2022-10-13T16:12:14.030Z,8.13
2022-10-13T16:17:15.742Z,8.20
2022-10-13T16:22:17.678Z,9.52
2022-10-13T16:27:19.747Z,9.27
2022-10-13T16:32:21.640Z,8.93
2022-10-13T16:37:24.066Z,9.82
2022-10-13T16:42:25.797Z,9.63
2022-10-13T16:47:27.365Z,10.38
2022-10-13T16:52:29.452Z,10.15
2022-10-13T16:57:31.659Z,10.40
2022-10-13T17:02:34.373Z,10.73
2022-10-13T17:07:35.912Z,11.40
2022-10-13T17:12:37.466Z,11.93
2022-10-13T17:17:39.036Z,13.23
2022-10-13T17:22:40.854Z,10.77
2022-10-13T17:27:42.928Z,12.27
2022-10-13T17:32:44.431Z,11.18
2022-10-13T17:37:49.479Z,11.68
2022-10-13T17:47:56.784Z,11.93
2022-10-13T17:53:00.240Z,11.07
2022-10-13T17:58:01.936Z,12.60
2022-10-13T18:03:03.645Z,14.30
2022-10-13T18:08:05.280Z,13.63
2022-10-13T18:13:10.863Z,14.55
2022-10-13T18:18:12.824Z,13.73
2022-10-13T18:23:14.938Z,13.43
2022-10-13T18:28:16.564Z,13.48
2022-10-13T18:33:18.139Z,14.00
2022-10-13T18:38:20.068Z,15.13
2022-10-13T18:43:21.613Z,15.75
2022-10-13T18:48:23.181Z,16.88
2022-10-13T18:53:24.750Z,15.73
2022-10-13T18:58:26.451Z,16.25
2022-10-13T19:03:28.523Z,16.95
2022-10-13T19:08:30.334Z,16.30
2022-10-13T19:13:33.095Z,17.20
2022-10-13T19:18:35.057Z,18.23
2022-10-13T19:23:36.657Z,16.98
2022-10-13T19:28:39.961Z,18.52
2022-10-13T19:33:44.802Z,18.90
2022-10-13T19:38:46.575Z,19.15
2022-10-13T19:43:48.436Z,20.00
2022-10-13T19:48:50.270Z,19.83
2022-10-13T19:53:51.995Z,19.33
2022-10-13T19:58:54.373Z,20.05
2022-10-13T20:03:56.785Z,19.50
2022-10-13T20:08:59.475Z,19.80
2022-10-13T20:14:02.451Z,19.60
2022-10-13T20:19:05.533Z,19.23
2022-10-13T20:24:07.196Z,19.10
2022-10-13T20:29:09.245Z,18.52
2022-10-13T20:34:11.329Z,20.90
2022-10-13T20:39:13.119Z,17.95
2022-10-13T20:44:14.657Z,20.00
2022-10-13T20:49:16.409Z,18.75
2022-10-13T20:54:17.936Z,21.52
2022-10-13T20:59:19.449Z,18.33
2022-10-13T21:04:21.026Z,17.88
2022-10-13T21:09:22.611Z,19.33
2022-10-13T21:14:24.138Z,19.67
2022-10-13T21:19:26.181Z,19.58
2022-10-13T21:24:27.715Z,23.00
2022-10-13T21:29:29.467Z,20.05
2022-10-13T21:34:31.184Z,19.88
2022-10-13T21:39:32.702Z,18.73
2022-10-13T21:44:34.209Z,21.83
2022-10-13T21:49:39.543Z,21.42
2022-10-13T21:54:41.288Z,19.98
2022-10-13T21:59:42.930Z,21.67
2022-10-13T22:04:44.432Z,20.55
2022-10-13T22:09:46.016Z,22.00
2022-10-13T22:14:47.653Z,22.35
2022-10-13T22:19:53.146Z,21.85
2022-10-13T22:24:54.751Z,23.55
2022-10-13T22:29:56.589Z,22.98
2022-10-13T22:34:58.838Z,21.42
2022-10-13T22:40:00.484Z,21.42
2022-10-13T22:45:02.362Z,21.08
2022-10-13T22:50:05.334Z,22.25
2022-10-13T22:55:07.560Z,21.40
2022-10-13T23:00:10.640Z,21.92
2022-10-13T23:05:15.136Z,20.90
2022-10-13T23:10:16.832Z,21.95
2022-10-13T23:15:18.352Z,19.35
2022-10-13T23:20:20.173Z,22.10
2022-10-13T23:25:21.769Z,20.88
2022-10-13T23:30:23.339Z,21.92
2022-10-13T23:35:24.992Z,22.30
2022-10-13T23:40:26.569Z,21.08
2022-10-13T23:45:28.179Z,20.65
2022-10-13T23:50:29.784Z,20.80
2022-10-13T23:55:31.352Z,20.92
